Terminal Aerodrome Forecast
Issued by NWS

Home | Current Version | Previous Version | Text Only | Print | Product List | Glossary On
Versions: 1 2 3 4 5 6 7 8 9 10 11 12 13 14 15 16 17
000
FTUS41 KPHI 011617 AAD
TAFMIV
TAF AMD
KMIV 011617Z 0116/0212 15004KT 2SM -SN BKN020 OVC040
     FM011800 VRB04KT 1SM -FZRAPL BR OVC010
     FM020300 VRB03KT 1SM RA OVC005
     FM020700 23005KT 4SM BR OVC008
     FM020900 27007KT 6SM BR OVC015
     FM021100 31010KT P6SM OVC035=

USA.gov is the U.S. government's official web portal to all federal, state and local government web resources and services.